Weather History for Glasgow, KY

Change the Weather History Date:

Tuesday, November 12, 2013

  Actual Average Record
Temperature  
Mean Temperature 40 °F -  
Max Temperature 55 °F 55 °F 75 °F (2010)
Min Temperature 26 °F 35 °F 20 °F (1960)
Degree Days  
Heating Degree Days 24    
Moisture  
Dew Point 24 °F    
Average Humidity 64    
Maximum Humidity 100    
Minimum Humidity 34    
Precipitation  
Precipitation 0.05 in - - ()
Sea Level Pressure  
Sea Level Pressure 30.49 in    
Wind  
Wind Speed 11 mph (North)    
Max Wind Speed 18 mph    
Max Gust Speed 24 mph    
Visibility 9 miles    
Events Rain , Snow    
Averages and records for this station are not official NWS values.
T = Trace of Precipitation, MM = Missing Value Source: NWS Daily Summary

Daily Weather History Graph

Daily Weather History Graph

Search for Another Location

Airport:

Trip Planner

Search our weather history database for the weather conditions in past years. The results will help you decide how hot, cold, wet, or windy it might be!

Date:

Astronomy

Nov. 12, 2013 Rise Set
Actual Time 6:19 AM CST 4:36 PM CST
Civil Twilight 5:52 AM CST 5:03 PM CST
Nautical Twilight 5:20 AM CST 5:34 PM CST
Astronomical Twilight 4:50 AM CST 6:05 PM CST
Moon 1:43 PM CST (11/12) 1:15 AM CST (11/12)
Length of Visible Light 11h 11m
Length of Day
10h 16m
Waxing Gibbous, 76% of the Moon is Illuminated
Nov 12
Waxing Gibbous
Nov 17
Full
Nov 25
Last Quarter
Dec 2
New
Dec 9
First Quarter

Hourly Weather History & Observations

Time (CST) Temp. Windchill Dew Point Humidity Pressure Visibility Wind Dir Wind Speed Gust Speed Precip Events Conditions
12:15 AM 55.4 °F - 32.4 °F 42% 30.18 in 10.0 mi North 11.5 mph 16.1 mph N/A   Overcast
12:35 AM 53.6 °F - 37.2 °F 54% 30.20 in 10.0 mi North 10.4 mph - N/A   Overcast
12:55 AM 51.3 °F - 41.0 °F 68% 30.21 in 10.0 mi North 15.0 mph 23.0 mph N/A   Overcast
1:15 AM 49.6 °F - 42.4 °F 76% 30.21 in 10.0 mi North 12.7 mph 19.6 mph N/A Rain Light Rain
1:35 AM 49.1 °F - 43.2 °F 80% 30.22 in 10.0 mi North 11.5 mph 18.4 mph N/A   Overcast
1:55 AM 47.5 °F - 41.7 °F 80% 30.24 in 10.0 mi North 12.7 mph 24.2 mph N/A   Overcast
2:15 AM 45.3 °F 37.8 °F 39.4 °F 80% 30.25 in 10.0 mi North 18.4 mph 24.2 mph N/A Rain Light Rain
2:35 AM 43.0 °F 36.0 °F 39.0 °F 86% 30.27 in 10.0 mi North 13.8 mph 19.6 mph N/A   Overcast
2:55 AM 41.4 °F 33.6 °F 37.8 °F 87% 30.28 in 7.0 mi North 15.0 mph 21.9 mph 0.01 in Rain Light Rain
3:15 AM 40.1 °F 32.7 °F 37.4 °F 90% 30.29 in 10.0 mi North 12.7 mph 18.4 mph N/A   Overcast
3:35 AM 39.4 °F 30.7 °F 36.7 °F 90% 30.31 in 5.0 mi North 16.1 mph 21.9 mph 0.01 in Rain Light Rain
3:55 AM 37.4 °F 28.5 °F 36.5 °F 97% 30.33 in 7.0 mi North 15.0 mph 24.2 mph 0.01 in   Light Drizzle
4:15 AM 36.3 °F 29.5 °F 35.8 °F 98% 30.35 in 5.0 mi North 9.2 mph 18.4 mph 0.02 in Rain Light Rain
4:35 AM 35.6 °F 25.9 °F 34.5 °F 96% 30.36 in 10.0 mi North 16.1 mph 20.7 mph 0.02 in   Light Drizzle
4:55 AM 34.2 °F 25.2 °F 33.6 °F 98% 30.38 in 4.0 mi North 12.7 mph 19.6 mph 0.02 in Rain Light Rain
5:15 AM 32.7 °F 23.9 °F 32.7 °F 100% 30.39 in 2.5 mi North 11.5 mph 21.9 mph N/A Snow Light Snow
5:35 AM 32.4 °F 22.5 °F 32.4 °F 100% 30.40 in 4.0 mi North 13.8 mph 18.4 mph N/A Snow Light Snow
5:55 AM 32.0 °F 23.0 °F 32.0 °F 100% 30.41 in 2.5 mi North 11.5 mph 19.6 mph N/A Snow Light Snow
6:15 AM 32.0 °F 24.2 °F 31.3 °F 97% 30.43 in 5.0 mi NNE 9.2 mph 17.3 mph N/A Snow Light Snow
6:35 AM 32.0 °F 23.0 °F 29.7 °F 91% 30.44 in 7.0 mi NNE 11.5 mph 18.4 mph N/A Snow Light Snow
6:55 AM 31.8 °F 26.2 °F 29.3 °F 90% 30.46 in 10.0 mi NNE 5.8 mph - N/A   Overcast
7:15 AM 32.0 °F 24.2 °F 29.7 °F 91% 30.47 in 10.0 mi North 9.2 mph - N/A   Overcast
7:35 AM 32.0 °F 22.5 °F 27.5 °F 83% 30.49 in 10.0 mi North 12.7 mph 24.2 mph N/A   Overcast
7:55 AM 32.0 °F 23.0 °F 26.2 °F 79% 30.49 in 10.0 mi North 11.5 mph 21.9 mph N/A   Overcast
8:15 AM 32.0 °F 22.1 °F 25.7 °F 78% 30.50 in 10.0 mi North 13.8 mph 21.9 mph N/A   Overcast
8:35 AM 32.0 °F 23.0 °F 25.5 °F 77% 30.51 in 10.0 mi North 11.5 mph 23.0 mph N/A   Mostly Cloudy
8:55 AM 32.4 °F 23.5 °F 25.0 °F 74% 30.51 in 10.0 mi North 11.5 mph 18.4 mph N/A   Mostly Cloudy
9:15 AM 32.9 °F 23.7 °F 24.1 °F 70% 30.53 in 10.0 mi North 12.7 mph 18.4 mph N/A   Scattered Clouds
9:35 AM 34.0 °F 24.6 °F 23.9 °F 67% 30.54 in 10.0 mi North 13.8 mph 19.6 mph 0.01 in   Scattered Clouds
9:55 AM 34.9 °F 26.6 °F 24.8 °F 67% 30.54 in 10.0 mi North 11.5 mph 21.9 mph 0.01 in   Mostly Cloudy
10:15 AM 34.5 °F 25.3 °F 23.7 °F 65% 30.54 in 10.0 mi NNE 13.8 mph 23.0 mph N/A   Scattered Clouds
10:35 AM 35.8 °F 29.4 °F 22.5 °F 58% 30.54 in 10.0 mi NE 8.1 mph 20.7 mph N/A   Clear
10:55 AM 36.9 °F 27.5 °F 22.3 °F 56% 30.54 in 10.0 mi North 16.1 mph 20.7 mph N/A   Clear
11:15 AM 37.4 °F 28.9 °F 21.2 °F 52% 30.54 in 10.0 mi North 13.8 mph 20.7 mph N/A   Clear
11:35 AM 37.9 °F 29.6 °F 21.4 °F 51% 30.53 in 10.0 mi North 13.8 mph 20.7 mph N/A   Clear
11:55 AM 38.3 °F 31.4 °F 20.3 °F 48% 30.52 in 10.0 mi NNE 10.4 mph - N/A   Clear
12:15 PM 39.0 °F 31.4 °F 18.1 °F 43% 30.52 in 10.0 mi North 12.7 mph 21.9 mph N/A   Clear
12:35 PM 39.4 °F 31.8 °F 18.0 °F 42% 30.52 in 10.0 mi North 12.7 mph 21.9 mph N/A   Clear
12:55 PM 39.6 °F 31.7 °F 17.1 °F 40% 30.52 in 10.0 mi North 13.8 mph 18.4 mph N/A   Clear
1:15 PM 40.1 °F 32.7 °F 15.6 °F 37% 30.53 in 10.0 mi NNE 12.7 mph 21.9 mph N/A   Clear
1:35 PM 40.1 °F 34.1 °F 15.4 °F 37% 30.53 in 10.0 mi North 9.2 mph 21.9 mph N/A   Clear
1:55 PM 40.5 °F 32.1 °F 15.4 °F 36% 30.54 in 10.0 mi North 16.1 mph - N/A   Clear
2:15 PM 40.3 °F 34.4 °F 14.4 °F 35% 30.53 in 10.0 mi North 9.2 mph 17.3 mph N/A   Clear
2:35 PM 40.3 °F 33.0 °F 14.5 °F 35% 30.54 in 10.0 mi North 12.7 mph 21.9 mph N/A   Clear
2:55 PM 39.7 °F 32.3 °F 13.3 °F 34% 30.54 in 10.0 mi North 12.7 mph 23.0 mph N/A   Clear
3:15 PM 39.4 °F 32.3 °F 12.9 °F 34% 30.55 in 10.0 mi North 11.5 mph 19.6 mph N/A   Clear
3:35 PM 39.0 °F 31.0 °F 12.7 °F 34% 30.55 in 10.0 mi North 13.8 mph 19.6 mph N/A   Clear
3:55 PM 38.1 °F 32.3 °F 11.8 °F 34% 30.56 in 10.0 mi North 8.1 mph 19.6 mph N/A   Clear
4:15 PM 37.2 °F 32.6 °F 11.8 °F 35% 30.56 in 10.0 mi NNE 5.8 mph - N/A   Clear
4:35 PM 36.0 °F 30.3 °F 12.2 °F 38% 30.57 in 10.0 mi North 6.9 mph - N/A   Clear
5:15 PM 33.4 °F - 14.5 °F 46% 30.58 in 10.0 mi Calm Calm - N/A   Clear
5:35 PM 32.9 °F 29.8 °F 15.1 °F 48% 30.58 in 10.0 mi NNE 3.5 mph - N/A   Clear
5:55 PM 32.7 °F - 15.1 °F 48% 30.59 in 10.0 mi Calm Calm - N/A   Clear
6:35 PM 32.0 °F 27.5 °F 15.4 °F 51% 30.59 in 10.0 mi NNE 4.6 mph - N/A   Clear
6:55 PM 32.0 °F 27.5 °F 15.6 °F 51% 30.60 in 10.0 mi NNE 4.6 mph - N/A   Clear
7:15 PM 31.8 °F 28.5 °F 15.8 °F 52% 30.60 in 10.0 mi NNE 3.5 mph - N/A   Clear
7:35 PM 31.6 °F - 16.0 °F 52% 30.60 in 10.0 mi Calm Calm - N/A   Clear
7:55 PM 30.7 °F - 16.9 °F 56% 30.61 in 10.0 mi Calm Calm - N/A   Clear
8:15 PM 30.0 °F - 17.2 °F 59% 30.61 in 10.0 mi Calm Calm - N/A   Clear
8:35 PM 29.8 °F - 17.2 °F 59% 30.62 in 10.0 mi Calm Calm - N/A   Clear
8:55 PM 29.3 °F - 17.4 °F 61% 30.63 in 10.0 mi Calm Calm - N/A   Clear
9:15 PM 29.8 °F - 16.9 °F 59% 30.63 in 10.0 mi Calm Calm - N/A   Clear
9:35 PM 29.3 °F - 17.1 °F 60% 30.63 in 10.0 mi Calm Calm - N/A   Clear
9:55 PM 28.8 °F - 17.4 °F 63% 30.63 in 10.0 mi Calm Calm - N/A   Clear
10:15 PM 28.8 °F 25.0 °F 17.4 °F 63% 30.63 in 10.0 mi NNE 3.5 mph - N/A   Clear
10:35 PM 28.2 °F 24.4 °F 17.6 °F 64% 30.63 in 10.0 mi NNE 3.5 mph - N/A   Clear
10:55 PM 27.7 °F - 17.8 °F 66% 30.62 in 10.0 mi Calm Calm - N/A   Clear
11:15 PM 27.0 °F 23.0 °F 18.1 °F 69% 30.62 in 10.0 mi North 3.5 mph - N/A   Clear
11:35 PM 26.2 °F - 18.5 °F 73% 30.62 in 10.0 mi Calm Calm - N/A   Clear
11:55 PM 26.1 °F 20.5 °F 18.3 °F 73% 30.62 in 10.0 mi North 4.6 mph - N/A   Clear